Time;durP1;ratioP1;P1;durP2;ratioP2;P2;SDS_P1;SDS_P2;PMS_P1;PMS_P2;Temp;Humidity;BMP_temperature;BMP_pressure;BME280_temperature;BME280_humidity;BME280_pressure;Samples;Min_cycle;Max_cycle;Signal;HPM_P1;HPM_P2
2021/05/14 00:01:57;;;;;;;0.98;0.63;;;;;;;9.50;76.29;97989.06;5062959;28;20109;-68
2021/05/14 00:04:23;;;;;;;0.73;0.50;;;;;;;9.34;76.76;98002.00;5058024;28;20044;-68
2021/05/14 00:06:49;;;;;;;0.65;0.40;;;;;;;9.28;77.00;98002.88;5062512;28;20029;-68
2021/05/14 00:09:16;;;;;;;0.52;0.40;;;;;;;9.21;77.14;97989.41;5064973;28;20039;-68
2021/05/14 00:11:43;;;;;;;1.23;0.50;;;;;;;9.31;77.48;98010.53;5056698;28;20024;-68
2021/05/14 00:14:09;;;;;;;0.95;0.55;;;;;;;9.33;76.64;97996.84;5052364;28;20478;-68
2021/05/14 00:16:34;;;;;;;0.93;0.70;;;;;;;9.47;76.20;98005.69;5059164;28;20059;-68
2021/05/14 00:19:00;;;;;;;0.93;0.60;;;;;;;9.40;76.60;98005.72;5070703;28;20028;-68
2021/05/14 00:21:29;;;;;;;1.35;0.40;;;;;;;9.61;75.42;98007.25;5070175;28;20036;-68
2021/05/14 00:23:54;;;;;;;;;;;;;;;9.54;75.97;97999.22;5072020;28;20028;-68
2021/05/14 00:26:20;;;;;;;0.43;0.43;;;;;;;9.46;76.74;97998.63;5067499;28;19920;-68
2021/05/14 00:28:46;;;;;;;1.88;0.60;;;;;;;9.40;76.90;98006.53;5067038;28;20025;-68
2021/05/14 00:31:11;;;;;;;0.75;0.52;;;;;;;9.39;76.67;98010.28;5056372;28;20067;-68
2021/05/14 00:33:36;;;;;;;0.80;0.60;;;;;;;9.29;76.97;97996.41;5074971;28;20097;-68
2021/05/14 00:36:02;;;;;;;0.55;0.55;;;;;;;9.25;77.19;97997.91;5074365;28;20397;-67
2021/05/14 00:38:27;;;;;;;1.23;0.73;;;;;;;9.27;77.67;98006.59;5073164;28;20438;-67
2021/05/14 00:40:53;;;;;;;1.02;0.60;;;;;;;9.19;77.05;98004.97;5063569;28;20020;-67
2021/05/14 00:43:18;;;;;;;3.58;0.88;;;;;;;9.17;77.28;98003.56;5074711;28;20427;-67
2021/05/14 00:45:43;;;;;;;0.50;0.50;;;;;;;9.13;77.87;98005.84;5073554;28;20039;-69
2021/05/14 00:48:09;;;;;;;1.30;0.65;;;;;;;9.08;77.61;98002.13;5073884;28;20505;-67
2021/05/14 00:50:34;;;;;;;2.03;0.77;;;;;;;9.14;76.63;98003.97;5074626;28;20029;-67
2021/05/14 00:52:59;;;;;;;2.45;0.70;;;;;;;9.10;76.90;98000.03;5074562;28;20036;-67
2021/05/14 00:55:25;;;;;;;1.33;0.70;;;;;;;9.12;77.08;98003.38;5074455;28;20851;-67
2021/05/14 00:57:50;;;;;;;1.98;0.90;;;;;;;9.09;77.16;98009.16;5073989;28;20024;-67
2021/05/14 01:00:16;;;;;;;2.33;1.65;;;;;;;9.00;77.92;97984.31;5074285;28;20024;-67
2021/05/14 01:02:41;;;;;;;2.40;1.50;;;;;;;9.04;78.25;97998.19;5067261;28;20043;-69
2021/05/14 01:05:07;;;;;;;5.38;1.52;;;;;;;9.07;78.33;98000.47;5054688;28;20051;-68
2021/05/14 01:07:32;;;;;;;2.13;1.30;;;;;;;8.97;78.03;97974.75;5065683;28;20505;-69
2021/05/14 01:09:59;;;;;;;2.70;1.38;;;;;;;9.00;78.02;97995.91;5074230;28;20039;-69
2021/05/14 01:12:24;;;;;;;4.03;1.83;;;;;;;9.14;77.89;97994.03;5056775;28;20025;-69
2021/05/14 01:14:49;;;;;;;2.97;1.92;;;;;;;9.08;77.85;98002.13;5071468;28;20086;-69
2021/05/14 01:17:15;;;;;;;4.43;1.85;;;;;;;9.05;78.02;98000.69;5067766;28;20024;-69
2021/05/14 01:19:40;;;;;;;3.15;1.50;;;;;;;9.07;78.29;97997.78;5067786;28;20024;-70
2021/05/14 01:22:05;;;;;;;2.50;1.42;;;;;;;9.06;78.47;97998.81;5067261;28;20104;-68
2021/05/14 01:24:32;;;;;;;2.15;1.25;;;;;;;9.08;78.66;98002.94;5072945;28;20402;-69
2021/05/14 01:26:58;;;;;;;3.28;1.23;;;;;;;9.09;78.87;97999.22;5072739;28;20043;-69
2021/05/14 01:29:23;;;;;;;4.30;1.40;;;;;;;9.08;79.34;97989.47;5075888;28;20107;-69
2021/05/14 01:31:49;;;;;;;3.10;1.50;;;;;;;9.07;79.97;97995.91;5053777;28;20535;-70
2021/05/14 01:34:15;;;;;;;2.45;1.08;;;;;;;9.10;79.74;97994.66;5053689;28;20388;-69
2021/05/14 01:36:41;;;;;;;1.35;0.80;;;;;;;9.16;79.70;97991.09;5053502;28;20025;-69
2021/05/14 01:39:11;;;;;;;1.20;0.77;;;;;;;9.25;79.48;97994.34;5069187;28;20030;-68
2021/05/14 01:41:37;;;;;;;2.28;0.80;;;;;;;9.16;79.86;97983.81;5069804;28;20024;-69
2021/05/14 01:44:03;;;;;;;1.15;0.80;;;;;;;8.99;80.11;97983.47;5061668;28;20047;-68
2021/05/14 01:46:29;;;;;;;1.30;0.95;;;;;;;9.11;80.03;97991.72;5067380;28;20047;-69
2021/05/14 01:48:55;;;;;;;2.33;1.00;;;;;;;9.02;80.24;97990.31;5064586;28;20037;-69
2021/05/14 01:51:22;;;;;;;2.60;1.10;;;;;;;9.05;80.53;97997.16;5073082;28;20060;-69
2021/05/14 01:53:47;;;;;;;2.00;1.17;;;;;;;8.99;79.58;97988.06;5066496;28;20032;-69
2021/05/14 01:56:13;;;;;;;2.08;1.13;;;;;;;8.92;79.68;97992.63;5073363;28;20025;-69
2021/05/14 01:58:38;;;;;;;2.13;1.38;;;;;;;9.02;78.44;97981.41;5065707;28;20074;-69
2021/05/14 02:01:04;;;;;;;2.33;1.20;;;;;;;8.91;79.06;97988.28;5070570;28;20040;-68
2021/05/14 02:03:29;;;;;;;2.55;1.27;;;;;;;8.86;79.36;97972.75;5075588;28;20111;-69
2021/05/14 02:05:54;;;;;;;4.05;1.15;;;;;;;8.70;80.30;97986.69;5073162;28;20112;-68
2021/05/14 02:08:20;;;;;;;1.73;1.00;;;;;;;8.53;81.37;97984.44;5067663;28;20071;-69
2021/05/14 02:10:45;;;;;;;1.80;1.23;;;;;;;8.52;81.86;97977.38;5062074;28;20035;-68
2021/05/14 02:13:10;;;;;;;1.98;1.38;;;;;;;8.47;82.38;97985.28;5067189;28;20056;-68
2021/05/14 02:15:36;;;;;;;1.45;0.90;;;;;;;8.28;83.42;97981.53;5053045;28;20459;-68
2021/05/14 02:18:01;;;;;;;2.65;0.95;;;;;;;8.19;84.07;97976.56;5052802;28;20021;-69
2021/05/14 02:20:26;;;;;;;2.58;1.10;;;;;;;8.27;84.12;97985.25;5074210;28;20085;-69
2021/05/14 02:22:52;;;;;;;1.20;1.00;;;;;;;8.34;84.28;97974.50;5036882;28;20021;-68
2021/05/14 02:25:17;;;;;;;4.70;1.00;;;;;;;8.15;84.63;97978.88;5054059;28;20028;-69
2021/05/14 02:27:42;;;;;;;2.67;1.10;;;;;;;8.01;84.89;97978.00;5054607;28;20025;-69
2021/05/14 02:30:09;;;;;;;1.23;0.70;;;;;;;8.06;85.49;97978.22;5063849;28;20023;-68
2021/05/14 02:32:35;;;;;;;1.00;0.70;;;;;;;7.84;85.47;97968.72;5072151;28;20387;-69
2021/05/14 02:35:00;;;;;;;6.28;1.00;;;;;;;7.83;85.72;97981.34;5051939;28;20070;-69
2021/05/14 02:37:26;;;;;;;3.90;0.98;;;;;;;7.75;86.20;97984.22;5065512;28;20031;-69
2021/05/14 02:39:51;;;;;;;5.38;1.08;;;;;;;7.60;87.14;97979.03;5052752;28;20029;-68
2021/05/14 02:42:17;;;;;;;2.80;0.90;;;;;;;7.50;87.48;97989.38;5049584;28;20033;-68
2021/05/14 02:44:42;;;;;;;1.23;0.85;;;;;;;7.38;87.16;97969.47;5069395;28;20028;-68
2021/05/14 02:47:08;;;;;;;1.75;0.95;;;;;;;7.39;87.62;97981.91;5071268;28;20027;-69
2021/05/14 02:49:34;;;;;;;5.20;0.98;;;;;;;7.20;87.56;97962.81;5059696;28;20129;-69
2021/05/14 02:52:00;;;;;;;1.50;0.88;;;;;;;7.25;87.94;97979.13;5052829;28;20063;-69
2021/05/14 02:54:25;;;;;;;1.55;0.90;;;;;;;7.20;88.59;97988.84;5062091;28;20135;-68
2021/05/14 02:56:50;;;;;;;2.15;1.05;;;;;;;7.16;88.53;97983.06;5053838;28;20029;-68
2021/05/14 02:59:16;;;;;;;1.77;1.10;;;;;;;7.16;88.74;97982.22;5051838;28;20108;-68
2021/05/14 03:01:41;;;;;;;2.33;1.15;;;;;;;7.16;89.22;97987.63;5063810;28;20035;-69
2021/05/14 03:04:06;;;;;;;1.27;0.90;;;;;;;7.20;88.58;97984.31;5062824;28;20039;-68
2021/05/14 03:06:32;;;;;;;3.95;1.15;;;;;;;7.16;88.65;97976.84;5065944;28;20052;-68
2021/05/14 03:08:58;;;;;;;1.27;1.00;;;;;;;7.44;87.62;97985.63;5052018;28;20025;-68
2021/05/14 03:11:23;;;;;;;1.73;0.85;;;;;;;7.47;87.52;97989.78;5064297;28;20513;-69
2021/05/14 03:13:49;;;;;;;2.35;0.90;;;;;;;7.43;86.99;97986.66;5057578;28;20039;-68
2021/05/14 03:16:14;;;;;;;3.40;1.00;;;;;;;7.44;87.34;97969.47;5067297;28;20033;-69
2021/05/14 03:18:39;;;;;;;0.95;0.80;;;;;;;7.53;86.79;97985.44;5052212;28;20470;-69
2021/05/14 03:21:05;;;;;;;0.70;0.70;;;;;;;7.57;86.60;97974.06;5053345;28;20444;-69
2021/05/14 03:23:30;;;;;;;3.60;1.00;;;;;;;7.51;87.14;97991.00;5057323;28;20036;-69
2021/05/14 03:25:55;;;;;;;4.10;1.55;;;;;;;7.51;86.97;97992.88;5069287;28;20025;-68
2021/05/14 03:28:20;;;;;;;1.98;0.75;;;;;;;7.45;87.23;97987.28;5062032;28;20032;-69
2021/05/14 03:30:46;;;;;;;2.95;0.82;;;;;;;7.42;87.43;97976.94;5078051;28;20028;-68
2021/05/14 03:33:19;;;;;;;2.15;1.00;;;;;;;7.50;86.75;97999.31;5065579;28;20021;-69
2021/05/14 03:35:45;;;;;;;3.72;0.90;;;;;;;7.54;86.70;97993.28;5071026;28;20498;-69
2021/05/14 03:38:10;;;;;;;0.90;0.80;;;;;;;7.59;86.66;97996.19;5055500;28;20032;-69
2021/05/14 03:40:36;;;;;;;1.95;0.80;;;;;;;7.64;86.47;98007.19;5066551;28;20078;-69
2021/05/14 03:43:03;;;;;;;1.15;0.90;;;;;;;7.59;86.81;97990.81;5071406;28;20028;-68
2021/05/14 03:45:28;;;;;;;1.58;0.90;;;;;;;7.57;86.61;97998.28;5079523;28;20024;-68
2021/05/14 03:47:55;;;;;;;1.20;1.00;;;;;;;7.55;86.41;97989.59;5059919;28;20506;-68
2021/05/14 03:50:20;;;;;;;1.25;1.08;;;;;;;7.59;86.16;97998.91;5069756;28;20032;-68
2021/05/14 03:52:46;;;;;;;1.98;0.93;;;;;;;7.75;85.80;97992.28;5068962;28;20391;-68
2021/05/14 03:55:12;;;;;;;1.67;1.08;;;;;;;7.80;84.84;97994.38;5065646;28;20028;-69
2021/05/14 03:57:37;;;;;;;2.00;1.08;;;;;;;7.86;84.34;97991.72;5070815;28;20400;-69
2021/05/14 04:00:05;;;;;;;1.42;0.80;;;;;;;7.95;83.60;97992.31;5037878;28;20033;-68
2021/05/14 04:02:30;;;;;;;2.22;1.20;;;;;;;7.84;84.35;97993.75;5072346;28;20021;-69
2021/05/14 04:04:56;;;;;;;1.67;1.00;;;;;;;7.98;84.28;97999.97;5073458;28;20432;-68
2021/05/14 04:07:22;;;;;;;1.45;1.00;;;;;;;8.09;84.25;97998.53;5075154;28;20032;-68
2021/05/14 04:09:53;;;;;;;2.03;1.20;;;;;;;8.12;84.19;98003.50;5071987;28;21815;-69
2021/05/14 04:15:03;;;;;;;7.63;1.05;;;;;;;8.24;83.02;97995.63;5067930;28;20455;-69
2021/05/14 04:17:28;;;;;;;1.38;0.90;;;;;;;8.29;83.11;98004.75;5074970;28;20384;-69
2021/05/14 04:19:54;;;;;;;1.25;0.80;;;;;;;8.28;82.89;97999.59;5057261;28;20119;-68
2021/05/14 04:22:19;;;;;;;1.20;0.93;;;;;;;8.09;83.24;97999.34;5072095;28;20024;-68
2021/05/14 04:24:44;;;;;;;3.03;1.02;;;;;;;8.17;83.36;98000.19;5061552;28;20055;-68
2021/05/14 04:27:10;;;;;;;1.17;0.90;;;;;;;8.16;82.86;97988.59;5059985;28;20099;-68
2021/05/14 04:29:37;;;;;;;2.72;0.80;;;;;;;8.29;82.78;97993.16;5055128;28;20025;-69
2021/05/14 04:32:02;;;;;;;1.27;1.00;;;;;;;8.45;82.34;98000.00;5066554;28;20039;-68
2021/05/14 04:34:28;;;;;;;3.05;1.10;;;;;;;8.45;81.76;98000.00;5061828;28;20037;-68
2021/05/14 04:36:53;;;;;;;3.75;1.17;;;;;;;8.45;81.50;98002.69;5069811;28;20060;-68
2021/05/14 04:39:19;;;;;;;4.00;0.85;;;;;;;8.65;80.81;98002.69;5099512;22;20582;-66
2021/05/14 04:41:44;;;;;;;2.45;1.02;;;;;;;8.49;80.83;97994.00;5081304;28;20025;-65
2021/05/14 04:44:09;;;;;;;2.55;1.00;;;;;;;8.60;80.51;97997.91;5056612;28;20496;-65
2021/05/14 04:46:35;;;;;;;2.63;0.75;;;;;;;8.42;80.96;98009.34;5078040;28;20020;-66
2021/05/14 04:49:00;;;;;;;2.13;0.88;;;;;;;8.36;81.50;97999.38;5087573;28;20494;-66
2021/05/14 04:51:26;;;;;;;2.33;0.98;;;;;;;8.26;81.32;97993.56;5074548;28;20108;-66
2021/05/14 04:53:52;;;;;;;3.63;1.00;;;;;;;8.26;82.26;97999.78;5075886;28;20084;-76
2021/05/14 04:56:18;;;;;;;1.75;0.90;;;;;;;8.27;83.01;98006.81;5056382;28;20139;-75
2021/05/14 04:58:44;;;;;;;2.25;1.10;;;;;;;8.20;83.14;97989.00;5075246;28;20027;-76
2021/05/14 05:01:13;;;;;;;1.63;1.00;;;;;;;8.41;83.09;98005.00;5075107;28;20482;-77
2021/05/14 05:03:38;;;;;;;1.65;0.80;;;;;;;8.50;82.79;98006.41;5049396;28;20021;-75
2021/05/14 05:06:04;;;;;;;2.72;1.10;;;;;;;8.56;82.47;97988.56;5058945;28;20031;-75
2021/05/14 05:08:30;;;;;;;1.52;1.02;;;;;;;8.78;82.40;98013.44;5054644;28;20021;-71
2021/05/14 05:10:56;;;;;;;5.25;1.23;;;;;;;8.81;82.02;97988.72;5066989;28;20025;-71
2021/05/14 05:13:21;;;;;;;4.70;1.00;;;;;;;9.08;80.63;97999.44;5072178;28;20035;-74
2021/05/14 05:15:47;;;;;;;5.10;1.20;;;;;;;9.11;80.16;98001.69;5056896;28;20040;-75
2021/05/14 05:18:12;;;;;;;3.38;1.00;;;;;;;9.32;78.43;98009.47;5071313;28;20046;-72
2021/05/14 05:20:37;;;;;;;3.72;1.30;;;;;;;9.35;77.47;97992.03;5055286;28;20028;-73
2021/05/14 05:23:05;;;;;;;2.28;1.17;;;;;;;9.60;76.84;98006.44;5074663;28;20021;-73
2021/05/14 05:25:30;;;;;;;2.58;1.27;;;;;;;9.56;76.78;98004.38;5073611;28;20508;-73
2021/05/14 05:27:55;;;;;;;4.55;1.38;;;;;;;9.60;76.38;98006.44;5067694;28;20115;-72
2021/05/14 05:30:22;;;;;;;1.75;1.30;;;;;;;9.66;75.74;97993.94;5056602;28;20036;-72
2021/05/14 05:32:47;;;;;;;5.35;1.20;;;;;;;9.92;74.81;98016.44;5048912;28;20030;-72
2021/05/14 05:35:12;;;;;;;4.57;1.20;;;;;;;9.96;74.07;97996.03;5069426;28;20659;-72
2021/05/14 05:37:39;;;;;;;5.28;1.27;;;;;;;10.37;73.53;98011.72;5054316;28;20512;-72
2021/05/14 05:40:05;;;;;;;6.00;1.40;;;;;;;10.57;72.86;98021.56;5075089;28;20070;-74
2021/05/14 05:42:30;;;;;;;3.70;1.15;;;;;;;10.57;71.86;98022.38;5050007;28;20016;-73
2021/05/14 05:44:55;;;;;;;2.42;1.17;;;;;;;10.65;70.40;98013.97;5056743;28;20058;-74
2021/05/14 05:47:21;;;;;;;0.90;0.70;;;;;;;10.59;70.38;98014.88;5053533;28;20025;-73
2021/05/14 05:49:46;;;;;;;6.43;1.00;;;;;;;10.61;70.75;98007.38;5038501;28;20444;-73
2021/05/14 05:52:12;;;;;;;2.00;1.13;;;;;;;10.74;70.65;98031.59;5073341;28;20386;-68
2021/05/14 05:54:37;;;;;;;1.98;1.25;;;;;;;10.88;70.34;98032.25;5070537;28;20166;-68
2021/05/14 05:57:03;;;;;;;3.67;1.27;;;;;;;10.98;70.42;98015.50;5055069;28;20027;-70
2021/05/14 05:59:28;;;;;;;4.30;1.10;;;;;;;11.11;69.99;98023.47;5072702;28;20028;-70
2021/05/14 06:01:54;;;;;;;5.05;1.20;;;;;;;11.36;69.46;98030.69;5064860;28;20021;-69
2021/05/14 06:04:19;;;;;;;3.75;1.02;;;;;;;11.27;69.16;98018.50;5074859;28;20025;-69
2021/05/14 06:06:45;;;;;;;1.50;0.77;;;;;;;11.35;69.21;98032.56;5050919;28;20021;-69
2021/05/14 06:09:10;;;;;;;2.40;1.30;;;;;;;11.50;68.81;98021.34;5064898;28;20099;-69
2021/05/14 06:11:35;;;;;;;2.03;1.10;;;;;;;11.58;68.46;98031.00;5080996;28;20461;-68
2021/05/14 06:14:01;;;;;;;2.90;1.00;;;;;;;11.72;68.32;98046.03;5054437;28;20418;-70
2021/05/14 06:16:27;;;;;;;4.55;1.00;;;;;;;11.82;67.58;98040.09;5066394;28;20016;-68
2021/05/14 06:19:02;;;;;;;1.33;0.80;;;;;;;12.31;66.23;98029.16;5068639;28;20076;-71
2021/05/14 06:21:27;;;;;;;0.75;0.65;;;;;;;13.25;64.14;98032.66;5045257;28;20028;-67
2021/05/14 06:23:52;;;;;;;2.10;0.75;;;;;;;13.76;61.59;98044.59;5067418;28;20028;-66
2021/05/14 06:26:17;;;;;;;2.50;0.80;;;;;;;13.77;61.47;98040.81;5065308;28;20410;-67
2021/05/14 06:28:43;;;;;;;2.88;0.85;;;;;;;14.47;59.55;98041.50;5065737;28;20033;-67
2021/05/14 06:31:08;;;;;;;1.88;0.73;;;;;;;15.71;56.71;98043.00;5048659;28;20029;-67
2021/05/14 06:33:34;;;;;;;2.58;0.77;;;;;;;18.18;51.86;98047.16;5051149;28;20027;-67
2021/05/14 06:36:01;;;;;;;2.70;0.70;;;;;;;20.31;45.79;98037.06;5072221;28;20037;-67
2021/05/14 06:38:26;;;;;;;2.20;0.80;;;;;;;18.59;48.46;98046.34;5072187;28;20012;-66
2021/05/14 06:40:53;;;;;;;1.88;0.70;;;;;;;17.48;50.92;98051.28;5068661;28;20115;-66
2021/05/14 06:43:19;;;;;;;1.85;0.75;;;;;;;15.85;55.14;98054.38;5070026;28;20032;-66
2021/05/14 06:45:44;;;;;;;1.17;0.63;;;;;;;15.79;55.60;98060.81;5067223;28;20052;-67
2021/05/14 06:48:13;;;;;;;1.90;0.90;;;;;;;15.82;55.60;98054.84;5056001;28;20446;-67
2021/05/14 06:50:39;;;;;;;1.48;0.63;;;;;;;17.15;51.66;98053.28;5065237;28;20040;-66
2021/05/14 06:53:04;;;;;;;0.82;0.50;;;;;;;18.29;50.01;98047.19;5067939;28;20398;-66
2021/05/14 06:55:30;;;;;;;1.02;0.40;;;;;;;17.89;50.97;98059.66;5076829;28;20111;-67
2021/05/14 06:57:55;;;;;;;1.00;0.35;;;;;;;17.63;50.57;98059.56;5067184;28;20029;-67
2021/05/14 07:00:21;;;;;;;4.93;0.75;;;;;;;16.18;55.07;98053.31;5062529;28;20073;-67
2021/05/14 07:02:48;;;;;;;1.63;0.63;;;;;;;16.73;54.86;98053.25;5066036;28;20736;-67
2021/05/14 07:05:14;;;;;;;3.95;0.40;;;;;;;18.01;50.31;98057.50;5072310;28;20021;-66
2021/05/14 07:07:40;;;;;;;0.65;0.35;;;;;;;18.86;48.59;98054.31;5053657;28;20094;-67
2021/05/14 07:10:06;;;;;;;2.08;0.32;;;;;;;19.07;48.31;98040.59;5059361;28;20066;-67
2021/05/14 07:12:33;;;;;;;2.00;0.60;;;;;;;18.73;49.67;98060.31;5065730;28;20048;-67
2021/05/14 07:14:58;;;;;;;0.90;0.45;;;;;;;18.98;48.43;98054.84;5064080;28;20028;-67
2021/05/14 07:17:24;;;;;;;8.18;0.60;;;;;;;19.82;45.65;98059.84;5069685;28;20028;-67
2021/05/14 07:19:49;;;;;;;0.85;0.40;;;;;;;22.07;42.74;98049.56;5068957;28;20029;-67
2021/05/14 07:22:14;;;;;;;1.63;0.50;;;;;;;24.31;39.42;98043.00;5066482;28;20049;-67
2021/05/14 07:24:40;;;;;;;1.20;0.32;;;;;;;26.37;35.28;98029.69;5064356;28;20035;-67
2021/05/14 07:27:05;;;;;;;1.10;0.35;;;;;;;28.48;31.21;98023.88;5065156;28;20029;-67
2021/05/14 07:29:31;;;;;;;1.73;0.40;;;;;;;29.16;30.05;98026.31;5071253;28;20036;-68
2021/05/14 07:31:56;;;;;;;0.75;0.28;;;;;;;28.26;31.27;98035.28;5070391;28;20040;-67
2021/05/14 07:34:21;;;;;;;1.00;0.40;;;;;;;28.39;31.30;98037.00;5075564;28;20023;-68
2021/05/14 07:36:47;;;;;;;1.08;0.20;;;;;;;29.41;30.65;98024.38;5068415;28;20029;-67
2021/05/14 07:39:12;;;;;;;0.60;0.25;;;;;;;29.55;30.64;98031.59;5071759;28;20020;-67
2021/05/14 07:41:37;;;;;;;1.45;0.30;;;;;;;31.62;28.61;98018.13;5078254;28;20033;-71
2021/05/14 07:44:03;;;;;;;1.70;0.32;;;;;;;30.65;28.61;98019.47;5066838;28;20394;-70
2021/05/14 07:46:28;;;;;;;1.02;0.30;;;;;;;26.96;32.69;98017.22;5075492;28;20070;-71
2021/05/14 07:48:53;;;;;;;1.33;0.30;;;;;;;25.55;35.33;98023.81;5076795;28;20040;-66
2021/05/14 07:51:18;;;;;;;0.52;0.20;;;;;;;23.13;38.69;98034.38;5098634;28;20027;-74
2021/05/14 07:53:44;;;;;;;0.82;0.30;;;;;;;24.82;36.40;98025.22;5075318;28;20501;-73
2021/05/14 07:56:09;;;;;;;2.95;0.50;;;;;;;26.19;34.75;98012.22;5077690;28;20056;-74
2021/05/14 07:58:35;;;;;;;2.22;0.30;;;;;;;24.74;35.81;98014.91;5070541;28;20021;-75
2021/05/14 08:01:00;;;;;;;4.55;0.70;;;;;;;22.66;39.70;98026.09;5077563;28;20367;-74
2021/05/14 08:03:25;;;;;;;2.13;0.47;;;;;;;24.67;37.24;98018.94;5059835;28;20497;-75
2021/05/14 08:05:51;;;;;;;0.90;0.38;;;;;;;26.35;34.33;97998.69;5074463;28;20032;-77
2021/05/14 08:08:18;;;;;;;1.38;0.25;;;;;;;27.30;33.02;98019.94;5077176;28;20067;-75
2021/05/14 08:10:44;;;;;;;1.95;0.30;;;;;;;27.47;32.09;98019.03;5058498;28;20482;-67
2021/05/14 08:13:10;;;;;;;5.65;0.52;;;;;;;28.37;31.60;98009.53;5072552;28;20071;-69
2021/05/14 08:15:36;;;;;;;0.68;0.30;;;;;;;28.56;31.60;98017.41;5061301;28;20028;-69
2021/05/14 08:18:01;;;;;;;1.15;0.40;;;;;;;28.29;30.07;98015.94;5074501;28;20427;-69
2021/05/14 08:20:27;;;;;;;0.65;0.20;;;;;;;27.61;30.99;98024.38;5059949;28;20028;-69
2021/05/14 08:22:52;;;;;;;2.28;0.30;;;;;;;28.82;31.32;98027.47;5058665;28;20161;-68
2021/05/14 08:25:18;;;;;;;1.30;0.20;;;;;;;28.76;30.61;98020.47;5063713;28;20633;-68
2021/05/14 08:27:44;;;;;;;0.65;0.30;;;;;;;29.21;30.83;98022.47;5064176;28;20117;-68
2021/05/14 08:30:12;;;;;;;1.15;0.30;;;;;;;31.38;27.58;98012.72;5053882;28;20051;-68
2021/05/14 08:32:38;;;;;;;0.70;0.30;;;;;;;32.20;27.55;98019.47;5070354;28;20032;-72
2021/05/14 08:35:05;;;;;;;1.27;0.20;;;;;;;32.65;26.14;98016.09;5071771;28;20115;-74
2021/05/14 08:37:30;;;;;;;1.27;0.30;;;;;;;34.13;24.82;98013.91;5059278;28;20020;-73
2021/05/14 08:39:56;;;;;;;0.38;0.13;;;;;;;33.37;24.93;98012.66;5074785;28;20035;-73
2021/05/14 08:42:21;;;;;;;2.35;0.38;;;;;;;32.22;26.87;98012.34;5058461;28;20081;-74
2021/05/14 08:44:47;;;;;;;0.57;0.20;;;;;;;29.26;28.20;98011.13;5076221;28;20036;-73
2021/05/14 08:47:12;;;;;;;0.82;0.25;;;;;;;28.61;30.47;98019.13;5073412;28;20699;-71
2021/05/14 08:49:39;;;;;;;1.90;0.30;;;;;;;28.55;28.38;98017.72;5073509;28;20043;-70
2021/05/14 08:52:07;;;;;;;0.68;0.30;;;;;;;30.04;28.14;98007.31;5050689;28;20029;-71
2021/05/14 08:54:34;;;;;;;1.33;0.30;;;;;;;26.35;31.32;98022.81;5055848;28;20457;-70
2021/05/14 08:57:00;;;;;;;1.10;0.20;;;;;;;24.76;34.16;98016.25;5036542;28;20052;-67
2021/05/14 08:59:25;;;;;;;1.58;0.22;;;;;;;21.62;38.27;98027.84;5073818;28;20486;-71
2021/05/14 09:01:50;;;;;;;0.55;0.25;;;;;;;21.16;41.89;98031.09;5073621;28;20078;-72
2021/05/14 09:04:18;;;;;;;0.73;0.22;;;;;;;20.14;44.33;98024.50;5073898;28;20502;-71
2021/05/14 09:06:45;;;;;;;0.85;0.30;;;;;;;19.78;45.61;98014.84;5074437;28;20032;-72
2021/05/14 09:09:13;;;;;;;1.80;0.30;;;;;;;19.10;46.72;98020.84;5071529;28;20394;-72
2021/05/14 09:11:47;;;;;;;0.65;0.30;;;;;;;18.50;48.78;98026.09;5070527;28;20040;-71
2021/05/14 09:14:33;;;;;;;2.83;0.25;;;;;;;18.31;49.93;98034.00;5055653;28;20027;-72
2021/05/14 09:17:18;;;;;;;0.50;0.22;;;;;;;18.23;50.01;98032.63;5054543;28;20073;-73
2021/05/14 09:19:46;;;;;;;1.15;0.30;;;;;;;19.41;47.48;98035.28;5051243;28;20025;-68
2021/05/14 09:22:17;;;;;;;0.95;0.20;;;;;;;20.28;44.79;98032.13;5067673;28;20490;-72
2021/05/14 09:24:46;;;;;;;1.20;0.20;;;;;;;21.34;43.88;98031.47;5058004;28;20039;-68
2021/05/14 09:27:29;;;;;;;2.95;0.20;;;;;;;21.32;42.12;98019.91;5067265;28;20024;-67
2021/05/14 09:29:59;;;;;;;1.10;0.20;;;;;;;21.11;42.35;98025.63;5064874;28;20036;-67
2021/05/14 09:32:33;;;;;;;1.10;0.20;;;;;;;20.71;42.36;98029.63;5072730;28;20031;-67
2021/05/14 09:35:00;;;;;;;0.57;0.20;;;;;;;20.38;43.82;98031.22;5070953;28;20032;-67
2021/05/14 09:37:28;;;;;;;0.45;0.20;;;;;;;22.05;39.87;98013.22;5064757;28;20104;-67
2021/05/14 09:40:13;;;;;;;0.52;0.20;;;;;;;26.94;33.56;98025.09;5073113;28;20036;-67
2021/05/14 09:42:39;;;;;;;1.27;0.13;;;;;;;28.40;31.96;98019.13;5055866;28;20028;-67
2021/05/14 09:45:25;;;;;;;3.90;0.20;;;;;;;23.93;36.34;98022.03;5072592;28;20035;-66
2021/05/14 09:47:57;;;;;;;0.70;0.20;;;;;;;22.63;39.69;98032.19;5059458;28;20051;-67
2021/05/14 09:50:33;;;;;;;0.35;0.20;;;;;;;21.56;41.11;98029.03;5042474;28;20043;-67
2021/05/14 09:53:05;;;;;;;1.60;0.20;;;;;;;19.86;44.55;98039.78;5067436;28;20075;-67
2021/05/14 09:55:31;;;;;;;1.27;0.30;;;;;;;19.02;46.14;98024.97;5070107;28;20428;-67
2021/05/14 09:58:03;;;;;;;0.32;0.10;;;;;;;18.69;46.62;98031.84;5069328;28;20039;-67
2021/05/14 10:00:29;;;;;;;0.90;0.15;;;;;;;18.47;47.07;98022.00;5063533;28;20028;-67
2021/05/14 10:02:57;;;;;;;0.20;0.10;;;;;;;18.33;46.81;98031.81;5055579;28;20043;-67
2021/05/14 10:05:23;;;;;;;0.10;0.10;;;;;;;18.72;46.68;98026.63;5054011;28;20082;-67
2021/05/14 10:07:48;;;;;;;1.17;0.10;;;;;;;18.75;47.33;98022.53;5055362;28;20029;-67
2021/05/14 10:10:14;;;;;;;0.57;0.10;;;;;;;19.28;44.93;98014.75;5069153;28;20086;-68
2021/05/14 10:12:40;;;;;;;0.10;0.00;;;;;;;19.73;44.02;98028.59;5069694;28;20030;-67
2021/05/14 10:15:12;;;;;;;1.77;0.15;;;;;;;20.42;42.50;98021.31;5067028;28;20070;-67
2021/05/14 10:17:39;;;;;;;0.30;0.10;;;;;;;22.35;39.29;98011.16;5063526;28;20551;-66
2021/05/14 10:20:12;;;;;;;0.32;0.00;;;;;;;24.10;36.86;98017.78;5069285;28;20025;-66
2021/05/14 10:22:37;;;;;;;0.40;0.10;;;;;;;23.63;34.82;98013.25;5058739;28;20024;-66
2021/05/14 10:25:02;;;;;;;0.30;0.10;;;;;;;23.79;34.99;98013.78;5054880;28;20029;-69
2021/05/14 10:27:37;;;;;;;1.40;0.20;;;;;;;24.11;33.83;98009.19;5054521;28;20041;-67
2021/05/14 10:30:03;;;;;;;0.90;0.13;;;;;;;24.15;33.78;98018.50;5049168;28;20029;-66
2021/05/14 10:32:43;;;;;;;0.40;0.00;;;;;;;22.48;37.04;98015.91;5069728;28;20024;-68
2021/05/14 10:35:30;;;;;;;0.77;0.10;;;;;;;22.20;37.03;98017.72;5056086;28;20111;-66
2021/05/14 10:38:03;;;;;;;0.73;0.20;;;;;;;21.71;38.24;98010.66;5054058;28;20035;-66
2021/05/14 10:40:32;;;;;;;2.05;0.20;;;;;;;21.41;39.18;98012.69;5064195;28;20478;-66
2021/05/14 10:43:05;;;;;;;0.45;0.20;;;;;;;20.23;40.58;98022.00;5069700;28;20028;-67
2021/05/14 10:45:41;;;;;;;1.10;0.28;;;;;;;20.69;39.69;98004.34;5069040;28;20059;-67
2021/05/14 10:48:18;;;;;;;0.35;0.10;;;;;;;21.37;39.96;98012.41;5068942;28;20107;-68
2021/05/14 10:50:58;;;;;;;0.15;0.10;;;;;;;23.13;36.85;97995.75;5049006;28;20024;-67
2021/05/14 10:53:30;;;;;;;1.42;0.20;;;;;;;23.61;34.96;98001.69;5067301;28;20112;-66
2021/05/14 10:56:16;;;;;;;0.20;0.10;;;;;;;24.22;34.14;98001.50;5064788;28;20036;-66
2021/05/14 10:58:49;;;;;;;0.28;0.10;;;;;;;23.28;37.06;97995.47;5069650;28;20031;-66
2021/05/14 11:01:39;;;;;;;0.10;0.03;;;;;;;25.65;35.02;97991.41;5068284;28;20451;-67
2021/05/14 11:04:24;;;;;;;0.00;0.00;;;;;;;26.31;32.63;97992.16;5069193;28;20056;-66
2021/05/14 11:06:51;;;;;;;3.75;0.13;;;;;;;24.68;33.77;97981.84;5064637;28;20056;-67
2021/05/14 11:09:18;;;;;;;0.43;0.10;;;;;;;26.66;32.17;97989.38;5054698;28;20032;-67
2021/05/14 11:12:06;;;;;;;1.00;0.10;;;;;;;26.87;30.86;97981.19;5072383;28;20028;-67
2021/05/14 11:14:43;;;;;;;0.77;0.17;;;;;;;25.84;30.34;97983.66;5078448;28;20028;-67
2021/05/14 11:17:13;;;;;;;0.47;0.10;;;;;;;24.30;34.41;97980.56;5050702;28;20830;-67
2021/05/14 11:19:47;;;;;;;0.82;0.20;;;;;;;23.52;34.14;97988.91;5067608;28;20115;-67
2021/05/14 11:22:35;;;;;;;0.30;0.10;;;;;;;23.10;36.88;97986.16;5058638;28;20402;-68
2021/05/14 11:25:03;;;;;;;0.90;0.10;;;;;;;25.01;34.82;97984.31;5052175;28;20485;-68
2021/05/14 11:27:31;;;;;;;0.40;0.10;;;;;;;23.97;33.94;97991.81;5052284;28;20509;-68
2021/05/14 11:29:59;;;;;;;0.10;0.00;;;;;;;23.72;35.22;97991.28;5062095;28;20447;-68
2021/05/14 11:32:34;;;;;;;0.70;0.10;;;;;;;22.41;35.34;97997.00;5061280;28;20036;-68
2021/05/14 11:35:00;;;;;;;0.65;0.15;;;;;;;22.63;35.51;97995.53;5049644;28;20028;-67
2021/05/14 11:37:54;;;;;;;0.32;0.10;;;;;;;23.08;36.29;97984.81;5062824;28;20127;-68
2021/05/14 11:40:35;;;;;;;0.63;0.28;;;;;;;21.87;36.10;97974.34;5043909;28;20082;-72